W K Kellogg Airport Battle Creek US
ICAO: KBTL
IATA: BTL
Category: Medium
Scheduled Services: No

Elevation: 952 ft
TransAlt. 18000 ft.

Airport Communications:
KALAMAZOO APP/DEP:119.2
ATIS:128.325
CTAF:118.5
GND:121.7
ANG OPS:32.35
LANSING RDO:122.2
BATTLE CREEK TWR:126.825
UNICOM:122.95

KBTL Zoom In..

If Map Doesn't Load, Click Here

Runways:

(A) RW 05L length 10004 ft width 150 ft
---- / hdg 47

(B) RW 05R length 4100 ft width 75 ft
---- / hdg 47

(C) RW 13 length 4835 ft width 100 ft
---- / hdg 130

(D) RW 23L length 4100 ft width 75 ft
---- / hdg 227

(E) RW 23R length 10004 ft width 150 ft
ILS 110.50 / hdg 227

(F) RW 31 length 4835 ft width 100 ft
---- / hdg 310

Location; KBTL
Day. 21 / Time. 12.53 Zulu
* Altimeter: 29.83
* Temperature: 23° c. 73.4°f.
* Wind from: 220° Speed 11 kn.
Dewpoint: 20° c.
Visibility: 10 Statute Miles.
Clouds: Broken 8500 ft.
Clouds: Overcast 1000 ft.
Conditions: Light Rain.

KBTL 211253Z 22011KT 10SM -RA BKN085 OVC100 23/20 A2983 RMK AO2 RAB05 SLP093 P0010 T02330200


Wind From 220°
Speed 11 kn.

 
 
jpsmedia.com for Web Design worldairports.se 2018   terms of use